Pinehurst, MA (01866)

12:16 PM EDT on May 03, 2015 (GMT -0400)
Billerica-Burlington Line | | Change Station
CLOSE
Current Station
Personal Weather Station
Location: Billerica, MA
Elevation: 165 ft
Nearby Weather Stations

Elev 165 ft 42.53 °N, 71.22 °W | Updated 6 seconds ago

Clear
Clear
72.1 °F
Feels Like 77 °F
N
0.0
Wind Variable Wind from SE
Gusts 2.7 mph

Today
High -- | Low -- °F
--% Chance of Precip.
Yesterday
High -- | Low -- °F
Precip. -- in
5:37 AM 7:46 PM
Full, 100% visible
Pressure 30.08 in
Visibility 10.0 miles
Clouds Clear
Heat Index 77 °F
Dew Point 48 °F
Humidity 42%
Rainfall 0.00 in
Snow Depth Not available.
UV 10 out of 12
Pollen 11.00 out of 12
Air Quality Not available.
Flu Activity Widespread
METAR KBED 031556Z 00000KT 10SM CLR 20/06 A3004 RMK AO2 SLP185 T02000061

More Conditions Fewer Conditions

Pressure 30.08 in
Visibility 10.0 miles
Clouds Clear
Heat Index 77 °F
Dew Point 48 °F
Humidity 42%
Rainfall 0.00 in
Snow Depth Not available.
UV 10 out of 12
Pollen 11.00 out of 12
Air Quality Not available.
Flu Activity Widespread
METAR KBED 031556Z 00000KT 10SM CLR 20/06 A3004 RMK AO2 SLP185 T02000061

More Conditions Fewer Conditions

Nepal has a long way to go to dig out and rebuild from a devastating earthquake. We have teamed up with several charities and organizations to make contributing to the relief effort as easy as possible.
How you can help: Portlight Strategies | Red Cross

10-Day Weather Forecast

Almanac

Astronomy

May. 03, 2015 Rise Set
Actual Time
Civil Twilight
Nautical Twilight
Astronomical Twilight
Moon
Length of Visible Light
Length of Day
Tomorrow will be .
, % of the Moon is Illuminated

Today's Extremes

State Highs State Lows

Community

WunderPhotos

Upload Photos

1,818,260 photos uploaded!

WunderBlogs® & News

Nearby

Air Quality

  Air Quality AQ Index Pollutant
Not available.

Snow Depth

Station Depth Elevation

Earthquake Activity

City Distance Mag. Time & Date
Minimum magnitude displayed is 2.5.

Coastal Water Temperatures

Place Temperature

Stations

Nearby Weather Stations

Station Location Temp. Windchill Dew Point Humidity Wind Precip. Elev Updated Type